createdAt,value
2022-11-09T10:07:02.969Z,1428.00
2022-11-09T10:08:02.616Z,1488.00
2022-11-09T10:09:02.899Z,1596.00
2022-11-09T10:10:02.518Z,1596.00
2022-11-09T10:11:02.495Z,1520.00
2022-11-09T10:12:02.414Z,1624.00
2022-11-09T10:13:02.375Z,1816.00
2022-11-09T10:14:02.322Z,1560.00
2022-11-09T10:15:02.288Z,1488.00
2022-11-09T10:16:02.234Z,1448.00
2022-11-09T10:17:02.214Z,1528.00
2022-11-09T10:18:02.141Z,2028.00
2022-11-09T10:19:02.112Z,1892.00
2022-11-09T10:20:02.057Z,1640.00
2022-11-09T10:21:02.319Z,1908.00
2022-11-09T10:22:01.965Z,1788.00
2022-11-09T10:23:05.986Z,1780.00
2022-11-09T10:29:37.522Z,1872.00
2022-11-09T10:34:50.876Z,1772.00
2022-11-09T10:35:51.270Z,2064.00
2022-11-09T10:36:50.810Z,1944.00
2022-11-09T10:37:50.763Z,1768.00
2022-11-09T10:38:50.718Z,2004.00
2022-11-09T10:40:50.637Z,1824.00
2022-11-09T10:41:50.676Z,1936.00
2022-11-09T10:42:50.531Z,1944.00
2022-11-09T10:43:50.665Z,1472.00
2022-11-09T10:44:50.445Z,1880.00
2022-11-09T10:45:50.710Z,2360.00
2022-11-09T10:46:50.687Z,1672.00
2022-11-09T10:47:50.519Z,1688.00
2022-11-09T10:51:26.559Z,1980.00
2022-11-09T11:49:17.572Z,1324.00
2022-11-09T11:57:41.167Z,1808.00
2022-11-09T11:58:41.178Z,1564.00
2022-11-09T11:59:41.067Z,1512.00
2022-11-09T12:00:41.009Z,1328.00
2022-11-09T12:02:45.594Z,1072.00
2022-11-09T12:03:49.553Z,1552.00
2022-11-09T12:04:45.484Z,1568.00
2022-11-09T12:05:45.350Z,1616.00
2022-11-09T12:06:45.342Z,1696.00
2022-11-09T12:07:45.287Z,1480.00
2022-11-09T12:08:45.277Z,1224.00
2022-11-09T12:09:45.167Z,1156.00
2022-11-09T12:10:45.124Z,1740.00
2022-11-09T12:11:45.080Z,2012.00
2022-11-09T12:12:45.037Z,1632.00
2022-11-09T12:13:49.514Z,1872.00
2022-11-09T12:14:44.942Z,2232.00
2022-11-09T12:15:44.900Z,2016.00
2022-11-09T12:16:44.860Z,1476.00
2022-11-09T12:17:44.819Z,1316.00
2022-11-09T12:18:44.764Z,1608.00
2022-11-09T12:19:44.722Z,1496.00
2022-11-09T12:20:44.704Z,1352.00
2022-11-09T12:21:44.632Z,1412.00
2022-11-09T12:22:44.591Z,1624.00
2022-11-09T12:23:44.545Z,1844.00
2022-11-09T12:24:44.498Z,2072.00
2022-11-09T12:25:44.454Z,1600.00
2022-11-09T12:26:44.409Z,1260.00
2022-11-09T12:27:44.367Z,1468.00
2022-11-09T12:28:44.330Z,1776.00
2022-11-09T12:29:44.288Z,1968.00
2022-11-09T12:30:44.231Z,1912.00
2022-11-09T12:31:44.191Z,1852.00
2022-11-09T12:32:44.142Z,1596.00
2022-11-09T12:33:44.322Z,1308.00
2022-11-09T12:34:44.056Z,1392.00
2022-11-09T12:35:44.102Z,1320.00
2022-11-09T12:36:43.992Z,1448.00
2022-11-09T12:37:43.929Z,1412.00
2022-11-09T12:38:43.879Z,1296.00
2022-11-09T12:39:43.837Z,1020.00
2022-11-09T12:40:43.791Z,872.00
2022-11-09T12:41:43.747Z,744.00
2022-11-09T12:42:43.703Z,680.00
2022-11-09T12:43:43.657Z,732.00
2022-11-09T12:44:43.613Z,1136.00
2022-11-09T12:45:43.569Z,1056.00
2022-11-09T12:46:43.525Z,932.00
2022-11-09T12:47:43.479Z,1188.00
2022-11-09T12:48:43.459Z,1488.00
2022-11-09T12:49:43.394Z,1832.00
2022-11-09T12:50:43.346Z,1892.00
2022-11-09T12:51:43.302Z,1612.00
2022-11-09T12:52:46.104Z,1408.00
2022-11-09T12:53:43.239Z,1288.00
2022-11-09T12:54:43.169Z,1520.00
2022-11-09T12:55:43.125Z,1884.00
2022-11-09T12:56:43.097Z,1788.00
2022-11-09T12:57:43.038Z,1364.00
2022-11-09T12:58:43.009Z,1252.00
2022-11-09T12:59:42.970Z,1504.00
2022-11-09T13:00:42.917Z,1432.00
2022-11-09T13:01:42.891Z,1260.00
2022-11-09T13:03:42.794Z,1348.00
2022-11-09T13:04:43.054Z,1236.00
2022-11-09T13:05:42.680Z,1148.00
2022-11-09T13:06:42.714Z,1080.00
2022-11-09T13:07:42.611Z,1200.00
2022-11-09T13:08:42.617Z,1900.00
2022-11-09T13:09:45.007Z,2176.00
2022-11-09T13:10:42.482Z,1932.00
2022-11-09T13:11:42.428Z,1688.00
2022-11-09T13:12:42.373Z,1436.00
2022-11-09T13:13:42.343Z,1492.00
2022-11-09T13:14:42.301Z,2140.00
2022-11-09T13:15:42.255Z,1256.00
2022-11-09T13:16:42.215Z,1156.00
2022-11-09T13:17:42.166Z,1252.00
2022-11-09T13:18:45.432Z,1144.00
2022-11-09T13:19:42.084Z,876.00
2022-11-09T13:20:55.516Z,876.00
2022-11-09T13:21:41.974Z,1160.00
2022-11-09T13:22:41.946Z,1424.00
2022-11-09T13:24:00.115Z,1612.00
2022-11-09T13:24:41.856Z,1668.00
2022-11-09T13:25:41.812Z,2028.00
2022-11-09T13:26:41.768Z,1588.00
2022-11-09T13:27:41.998Z,1596.00
2022-11-09T13:28:41.684Z,1536.00
2022-11-09T13:29:41.704Z,1524.00
2022-11-09T13:30:41.572Z,1504.00
2022-11-09T13:31:41.528Z,1516.00
2022-11-09T13:32:41.506Z,1496.00
2022-11-09T13:33:41.437Z,1520.00
2022-11-09T13:34:41.398Z,1692.00
2022-11-09T13:35:41.383Z,1828.00
2022-11-09T13:36:41.310Z,1736.00
2022-11-09T13:37:41.282Z,1908.00
2022-11-09T13:38:41.554Z,2156.00
2022-11-09T13:39:41.188Z,2084.00
2022-11-09T13:40:41.187Z,1688.00
2022-11-09T13:41:41.101Z,1628.00
2022-11-09T13:42:41.062Z,1488.00
2022-11-09T13:43:41.012Z,1260.00
2022-11-09T13:44:43.362Z,1236.00
2022-11-09T13:45:40.923Z,1512.00
2022-11-09T13:46:40.878Z,1324.00
2022-11-09T13:47:40.852Z,892.00
2022-11-09T13:48:40.774Z,684.00
2022-11-09T13:49:40.743Z,544.00
2022-11-09T13:50:40.686Z,484.00
2022-11-09T13:51:40.640Z,516.00
2022-11-09T13:52:40.597Z,580.00
2022-11-09T13:53:40.550Z,536.00
2022-11-09T13:54:40.508Z,684.00
2022-11-09T13:55:40.460Z,1020.00
2022-11-09T13:56:40.549Z,1112.00
2022-11-09T13:57:40.418Z,1136.00
2022-11-09T13:58:40.332Z,1124.00
2022-11-09T13:59:40.286Z,1040.00
2022-11-09T14:00:40.265Z,1308.00
2022-11-09T14:01:40.256Z,1172.00
2022-11-09T14:02:40.159Z,916.00
2022-11-09T14:03:40.109Z,836.00
2022-11-09T14:04:40.066Z,924.00
2022-11-09T14:05:40.020Z,1044.00
2022-11-09T14:06:40.026Z,996.00
2022-11-09T14:07:39.946Z,936.00
2022-11-09T14:08:40.821Z,908.00
2022-11-09T14:09:39.839Z,948.00
2022-11-09T14:10:39.808Z,824.00
2022-11-09T14:11:39.784Z,732.00
2022-11-09T14:12:39.728Z,748.00
2022-11-09T14:13:39.678Z,588.00
2022-11-09T14:14:39.618Z,500.00
2022-11-09T14:15:39.572Z,504.00
2022-11-09T14:16:39.533Z,448.00
2022-11-09T14:17:39.485Z,488.00
2022-11-09T14:18:39.441Z,628.00
2022-11-09T14:19:39.392Z,740.00
2022-11-09T14:20:39.373Z,784.00
2022-11-09T14:21:39.305Z,784.00
2022-11-09T14:22:39.262Z,788.00
2022-11-09T14:23:39.217Z,780.00
2022-11-09T14:24:39.172Z,700.00
2022-11-09T14:25:39.125Z,640.00
2022-11-09T14:26:39.086Z,632.00
2022-11-09T14:27:39.040Z,656.00
2022-11-09T14:28:39.039Z,684.00
2022-11-09T14:29:38.945Z,728.00
2022-11-09T14:30:38.905Z,832.00
2022-11-09T14:31:44.094Z,964.00
2022-11-09T14:32:38.816Z,1068.00
2022-11-09T14:33:38.769Z,1132.00
2022-11-09T14:34:38.725Z,1304.00
2022-11-09T14:35:38.695Z,1548.00
2022-11-09T14:36:38.634Z,1768.00
2022-11-09T14:37:38.589Z,1904.00
2022-11-09T14:38:38.544Z,2000.00
2022-11-09T14:39:38.765Z,1988.00
2022-11-09T14:40:38.455Z,2000.00
2022-11-09T14:41:38.410Z,1832.00
2022-11-09T14:42:42.158Z,1700.00
2022-11-09T14:43:38.319Z,1688.00
2022-11-09T14:44:38.296Z,1560.00
2022-11-09T14:45:38.231Z,1344.00
2022-11-09T14:46:38.187Z,1192.00
2022-11-09T14:47:38.145Z,1136.00
2022-11-09T14:48:40.858Z,1112.00
2022-11-09T14:49:38.053Z,1060.00
2022-11-09T14:50:38.009Z,984.00
2022-11-09T14:51:37.967Z,844.00
2022-11-09T14:52:37.924Z,720.00
2022-11-09T14:53:37.872Z,636.00
2022-11-09T14:54:42.005Z,584.00
2022-11-09T14:55:37.785Z,540.00
2022-11-09T14:56:37.739Z,508.00
2022-11-09T14:57:37.695Z,508.00
2022-11-09T14:58:37.651Z,524.00
2022-11-09T14:59:37.604Z,560.00
2022-11-09T15:00:39.640Z,560.00
2022-11-09T15:01:37.521Z,576.00
2022-11-09T15:02:37.472Z,552.00
2022-11-09T15:03:37.427Z,456.00
2022-11-09T15:04:37.434Z,432.00
2022-11-09T15:05:37.337Z,420.00
2022-11-09T15:06:38.830Z,464.00
2022-11-09T15:07:37.248Z,452.00
2022-11-09T15:08:37.202Z,472.00
2022-11-09T15:09:37.157Z,608.00
2022-11-09T15:10:37.113Z,716.00
2022-11-09T15:11:37.076Z,684.00
2022-11-09T15:12:39.203Z,728.00
2022-11-09T15:13:37.180Z,756.00
2022-11-09T15:14:36.953Z,760.00
2022-11-09T15:15:36.914Z,624.00
2022-11-09T15:16:36.997Z,612.00
2022-11-09T15:17:36.795Z,580.00
2022-11-09T15:18:36.757Z,508.00
2022-11-09T15:19:36.708Z,460.00
2022-11-09T15:20:36.664Z,416.00
2022-11-09T15:21:36.627Z,404.00
2022-11-09T15:22:36.575Z,432.00
2022-11-09T15:23:36.528Z,452.00
2022-11-09T15:24:36.482Z,440.00
2022-11-09T15:25:36.441Z,412.00
2022-11-09T15:26:36.395Z,360.00
2022-11-09T15:27:36.347Z,320.00
2022-11-09T15:28:36.308Z,308.00
2022-11-09T15:29:36.258Z,340.00
2022-11-09T15:30:36.213Z,400.00
2022-11-09T15:31:36.211Z,440.00
2022-11-09T15:32:36.226Z,432.00
2022-11-09T15:33:36.084Z,412.00
2022-11-09T15:34:36.031Z,384.00
2022-11-09T15:35:35.996Z,344.00
2022-11-09T15:36:35.964Z,312.00
2022-11-09T15:37:35.945Z,284.00
2022-11-09T15:38:35.881Z,268.00
2022-11-09T15:39:35.849Z,264.00
2022-11-09T15:40:35.764Z,256.00
2022-11-09T15:41:35.715Z,248.00
2022-11-09T15:42:35.673Z,224.00
2022-11-09T15:43:35.625Z,200.00
2022-11-09T15:44:35.636Z,188.00
2022-11-09T15:45:35.535Z,176.00
2022-11-09T15:46:35.492Z,168.00
2022-11-09T15:48:35.418Z,148.00
2022-11-09T15:49:35.355Z,140.00
2022-11-09T15:50:35.307Z,132.00
2022-11-09T15:51:35.269Z,124.00
2022-11-09T15:52:35.219Z,116.00
2022-11-09T15:53:35.176Z,112.00
2022-11-09T15:54:35.127Z,104.00
2022-11-09T15:55:35.084Z,96.00
2022-11-09T15:56:35.038Z,92.00
2022-11-09T15:57:34.995Z,84.00
2022-11-09T15:58:34.944Z,76.00
2022-11-09T15:59:34.902Z,72.00
2022-11-09T16:00:34.904Z,64.00
2022-11-09T16:01:34.845Z,56.00
2022-11-09T16:02:34.763Z,52.00
2022-11-09T16:03:34.722Z,44.00
2022-11-09T16:04:34.695Z,44.00
2022-11-09T16:05:34.634Z,32.00
2022-11-09T16:06:34.644Z,32.00
2022-11-09T16:07:34.599Z,24.00
2022-11-09T16:08:34.494Z,20.00
2022-11-09T16:09:34.450Z,20.00
2022-11-09T16:13:37.154Z,8.00
2022-11-09T16:14:37.112Z,8.00
2022-11-09T16:15:37.067Z,8.00
2022-11-09T16:57:58.146Z,0.00
2022-11-09T17:16:10.148Z,0.00
2022-11-09T17:29:03.897Z,0.00
2022-11-09T17:30:03.873Z,0.00
2022-11-09T17:31:03.820Z,0.00
2022-11-09T17:32:07.816Z,0.00
2022-11-09T17:41:12.227Z,0.00
2022-11-09T17:42:12.174Z,0.00
2022-11-09T17:43:12.125Z,0.00
2022-11-09T17:44:12.083Z,0.00
2022-11-09T17:45:12.037Z,0.00
2022-11-09T17:46:12.086Z,0.00
2022-11-09T17:47:11.965Z,0.00
2022-11-09T21:43:19.311Z,0.00
2022-11-09T21:44:18.848Z,0.00
2022-11-09T21:45:18.801Z,0.00
2022-11-09T21:46:18.755Z,0.00
2022-11-09T21:47:18.704Z,0.00
2022-11-09T21:48:19.035Z,0.00
2022-11-09T21:49:18.813Z,0.00
2022-11-09T21:50:18.562Z,0.00
2022-11-09T21:51:18.519Z,0.00
2022-11-09T21:52:18.477Z,0.00
2022-11-09T21:53:18.685Z,0.00
2022-11-09T21:54:18.379Z,0.00
2022-11-09T21:55:18.327Z,0.00
2022-11-09T21:56:18.288Z,0.00
2022-11-09T21:57:18.232Z,0.00
2022-11-09T21:58:18.189Z,0.00
2022-11-09T21:59:18.158Z,0.00
2022-11-09T22:00:18.091Z,0.00
2022-11-09T22:01:18.106Z,0.00
